Time;durP1;ratioP1;P1;durP2;ratioP2;P2;SDS_P1;SDS_P2;PMS_P1;PMS_P2;Temp;Humidity;BMP_temperature;BMP_pressure;BME280_temperature;BME280_humidity;BME280_pressure;Samples;Min_cycle;Max_cycle;Signal;HPM_P1;HPM_P2
2022/11/03 00:02:15;;;;;;;;;5.25;5.25;;;;;13.25;77.47;100292.78;5035179;28;45430;-73
2022/11/03 00:04:42;;;;;;;;;6.00;6.00;;;;;13.32;77.24;100292.03;5035289;28;46539;-74
2022/11/03 00:07:08;;;;;;;;;6.67;5.00;;;;;13.42;77.91;100303.56;5035420;28;45584;-74
2022/11/03 00:09:34;;;;;;;;;6.00;6.00;;;;;13.34;77.81;100281.56;5035192;28;46364;-74
2022/11/03 00:12:00;;;;;;;;;5.50;5.25;;;;;13.48;77.36;100281.78;5035153;28;45551;-73
2022/11/03 00:14:27;;;;;;;;;5.00;4.00;;;;;13.37;77.49;100249.25;5035692;28;45500;-74
2022/11/03 00:16:53;;;;;;;;;7.33;6.00;;;;;13.63;77.45;100273.25;5033291;28;45457;-74
2022/11/03 00:19:19;;;;;;;;;7.00;7.00;;;;;13.64;77.34;100269.75;5034897;28;45288;-73
2022/11/03 00:21:45;;;;;;;;;6.00;5.75;;;;;13.63;77.42;100257.50;5034877;28;45697;-74
2022/11/03 00:24:12;;;;;;;;;7.00;7.00;;;;;13.74;76.59;100253.25;5034773;28;45418;-74
2022/11/03 00:26:37;;;;;;;;;7.00;6.67;;;;;13.93;77.20;100259.59;5035261;28;45755;-74
2022/11/03 00:29:11;;;;;;;;;9.33;7.33;;;;;14.00;76.81;100240.41;5034986;28;46005;-74
2022/11/03 00:31:40;;;;;;;;;6.00;6.00;;;;;14.21;76.44;100241.53;5032729;28;45504;-74
2022/11/03 00:34:06;;;;;;;;;9.00;8.67;;;;;14.41;76.04;100237.34;5034907;28;45689;-74
2022/11/03 00:36:38;;;;;;;;;6.33;6.33;;;;;14.60;75.87;100229.63;5032382;28;45474;-74
2022/11/03 00:39:04;;;;;;;;;8.00;7.67;;;;;14.63;74.93;100216.53;5050219;28;46500;-74
2022/11/03 00:41:30;;;;;;;;;7.00;6.25;;;;;14.71;74.72;100217.47;5034546;28;45349;-74
2022/11/03 00:43:57;;;;;;;;;8.00;7.00;;;;;14.75;74.53;100200.84;5035149;28;45366;-74
2022/11/03 00:46:24;;;;;;;;;5.33;5.33;;;;;14.82;73.61;100221.06;5035374;28;45276;-74
2022/11/03 00:48:50;;;;;;;;;8.67;6.67;;;;;14.72;73.48;100198.19;5034684;28;46728;-74
2022/11/03 00:51:25;;;;;;;;;6.67;6.00;;;;;14.69;73.58;100201.69;5050146;28;45486;-74
2022/11/03 00:53:58;;;;;;;;;9.00;8.67;;;;;14.50;73.78;100174.34;5033415;28;45276;-73
2022/11/03 00:56:29;;;;;;;;;8.00;8.00;;;;;14.58;74.08;100189.31;5035169;28;45509;-74
2022/11/03 00:58:56;;;;;;;;;7.00;6.33;;;;;14.57;73.96;100190.19;5032448;28;45779;-74
2022/11/03 01:01:25;;;;;;;;;9.33;8.33;;;;;14.43;74.25;100162.03;5035975;28;45587;-75
2022/11/03 01:06:49;;;;;;;;;8.00;8.00;;;;;14.25;74.85;100162.75;5036298;28;45356;-74
2022/11/03 01:09:26;;;;;;;;;7.33;7.33;;;;;14.29;75.39;100171.53;5035689;28;45422;-75
2022/11/03 01:12:13;;;;;;;;;6.33;6.33;;;;;13.77;75.21;100102.75;5033752;28;45574;-75
2022/11/03 01:14:42;;;;;;;;;8.67;6.33;;;;;14.24;75.29;100199.50;5034762;28;45517;-75
2022/11/03 01:17:11;;;;;;;;;7.67;7.00;;;;;14.25;75.65;100209.16;5036577;28;45491;-74
2022/11/03 01:19:36;;;;;;;;;7.00;6.00;;;;;14.24;75.51;100223.16;5036113;28;45858;-73
2022/11/03 01:22:02;;;;;;;;;9.00;7.33;;;;;14.12;75.41;100201.16;5037430;28;45703;-75
2022/11/03 01:24:28;;;;;;;;;6.00;6.00;;;;;14.29;75.02;100210.94;5037989;28;45566;-74
2022/11/03 01:26:53;;;;;;;;;7.00;7.00;;;;;14.45;74.93;100210.22;5037075;28;45227;-74
2022/11/03 01:29:19;;;;;;;;;10.00;9.00;;;;;14.58;74.78;100192.81;5037474;28;45514;-73
2022/11/03 01:31:45;;;;;;;;;8.00;7.00;;;;;14.78;74.17;100182.47;5036236;28;45497;-74
2022/11/03 01:34:15;;;;;;;;;7.67;7.33;;;;;14.88;73.95;100183.41;5037499;28;45582;-74
2022/11/03 01:36:42;;;;;;;;;8.33;8.00;;;;;14.95;73.81;100181.72;5053098;28;45572;-73
2022/11/03 01:39:16;;;;;;;;;8.00;7.00;;;;;15.02;73.43;100162.44;5037481;28;45303;-73
2022/11/03 01:41:44;;;;;;;;;10.00;9.00;;;;;15.11;73.42;100157.25;5037335;28;46100;-75
2022/11/03 01:44:12;;;;;;;;;9.67;9.00;;;;;15.13;73.43;100165.16;5037017;28;45205;-74
2022/11/03 01:46:50;;;;;;;;;7.33;7.00;;;;;15.13;73.35;100163.38;5037440;28;45328;-74
2022/11/03 01:49:24;;;;;;;;;10.00;9.00;;;;;15.04;73.71;100142.28;5035042;28;45457;-74
2022/11/03 01:52:12;;;;;;;;;10.67;10.67;;;;;15.09;73.44;100144.06;5037145;28;45342;-74
2022/11/03 01:54:43;;;;;;;;;10.00;9.67;;;;;15.07;73.34;100123.91;5035419;28;45302;-74
2022/11/03 01:57:16;;;;;;;;;9.33;8.00;;;;;15.07;73.39;100122.13;5037250;28;45479;-74
2022/11/03 01:59:43;;;;;;;;;11.33;9.00;;;;;15.14;73.60;100114.28;5036965;28;46220;-75
2022/11/03 02:02:10;;;;;;;;;9.67;7.67;;;;;15.02;73.29;100094.03;5052343;28;45390;-74
2022/11/03 02:04:36;;;;;;;;;9.67;9.00;;;;;15.26;73.39;100119.56;5037187;28;45432;-74
2022/11/03 02:07:38;;;;;;;;;9.00;9.00;;;;;15.23;73.25;100109.94;5036987;28;45497;-74
2022/11/03 02:10:05;;;;;;;;;9.33;9.33;;;;;15.27;73.01;100101.16;5001828;28;46638;-75
2022/11/03 02:12:31;;;;;;;;;9.00;8.00;;;;;15.36;72.60;100105.59;5035933;28;45318;-75
2022/11/03 02:15:05;;;;;;;;;10.00;9.67;;;;;15.44;72.76;100108.28;5037208;28;45366;-74
2022/11/03 02:17:32;;;;;;;;;9.67;9.67;;;;;15.48;72.30;100113.53;5052420;28;45529;-75
2022/11/03 02:20:11;;;;;;;;;8.00;7.67;;;;;15.62;72.20;100115.34;5037019;28;46392;-74
2022/11/03 02:22:57;;;;;;;;;11.00;10.00;;;;;15.69;71.92;100115.31;5034585;28;45584;-75
2022/11/03 02:25:35;;;;;;;;;12.33;11.33;;;;;15.77;71.58;100102.22;5036039;28;45518;-74
2022/11/03 02:28:02;;;;;;;;;10.33;8.67;;;;;15.82;71.56;100105.75;5034064;28;45709;-74
2022/11/03 02:30:43;;;;;;;;;11.00;10.67;;;;;15.75;71.39;100089.94;5036724;28;45385;-74
2022/11/03 02:33:30;;;;;;;;;10.33;9.67;;;;;15.91;71.23;100107.50;5036643;28;45409;-74
2022/11/03 02:36:10;;;;;;;;;9.33;9.00;;;;;15.93;71.11;100103.13;5033487;28;45354;-74
2022/11/03 02:39:06;;;;;;;;;8.67;8.33;;;;;15.97;70.74;100088.19;5034738;28;45415;-74
2022/11/03 02:41:35;;;;;;;;;8.33;8.00;;;;;16.00;70.79;100099.63;5055841;28;46829;-74
2022/11/03 02:44:04;;;;;;;;;6.00;6.00;;;;;15.96;70.47;100087.31;5034960;28;45428;-74
2022/11/03 02:46:31;;;;;;;;;9.00;9.00;;;;;16.12;70.37;100106.66;5036303;28;45461;-74
2022/11/03 02:48:57;;;;;;;;;13.00;12.00;;;;;16.03;70.44;100089.06;5035610;28;45882;-73
2022/11/03 02:51:25;;;;;;;;;11.00;10.00;;;;;16.10;70.13;100080.28;5035900;28;47285;-73
2022/11/03 02:54:03;;;;;;;;;10.00;10.00;;;;;16.25;70.15;100089.06;5051725;28;45355;-73
2022/11/03 02:56:33;;;;;;;;;11.00;9.00;;;;;16.31;70.10;100062.69;5051698;28;45447;-73
2022/11/03 02:59:05;;;;;;;;;10.33;10.00;;;;;16.52;69.69;100074.13;5051908;28;45592;-74
2022/11/03 03:01:45;;;;;;;;;11.67;10.67;;;;;16.58;69.55;100063.56;5034497;28;45300;-74
2022/11/03 03:04:27;;;;;;;;;9.00;8.67;;;;;16.61;69.37;100066.16;5036103;28;45421;-73
2022/11/03 03:07:07;;;;;;;;;11.00;10.00;;;;;16.78;69.38;100077.56;5033837;28;45842;-73
2022/11/03 03:09:40;;;;;;;;;9.00;7.67;;;;;16.88;69.00;100068.75;5033859;28;45509;-73
2022/11/03 03:12:09;;;;;;;;;9.33;8.33;;;;;16.93;68.85;100062.59;5035787;28;45374;-73
2022/11/03 03:14:38;;;;;;;;;13.33;12.00;;;;;17.04;68.51;100045.84;5033339;28;45538;-74
2022/11/03 03:17:09;;;;;;;;;11.00;10.00;;;;;17.16;68.22;100038.75;5035823;28;45485;-73
2022/11/03 03:20:00;;;;;;;;;9.00;9.00;;;;;17.15;68.17;100002.66;5033756;28;45281;-73
2022/11/03 03:22:42;;;;;;;;;10.00;10.00;;;;;17.25;67.71;100007.91;5035327;28;46039;-74
2022/11/03 03:25:17;;;;;;;;;9.67;9.67;;;;;17.37;67.50;100022.78;5035255;28;45780;-73
2022/11/03 03:27:52;;;;;;;;;9.00;8.00;;;;;17.42;67.20;100014.84;5036131;28;45522;-73
2022/11/03 03:30:18;;;;;;;;;10.67;9.67;;;;;17.47;66.60;100018.34;5034157;28;45482;-73
2022/11/03 03:32:48;;;;;;;;;11.00;10.33;;;;;17.54;66.48;100017.38;5035824;28;46122;-73
2022/11/03 03:35:21;;;;;;;;;10.00;9.00;;;;;17.64;65.58;100005.88;5033296;28;45461;-73
2022/11/03 03:37:52;;;;;;;;;9.33;8.33;;;;;17.70;65.56;99997.88;5034834;28;45555;-73
2022/11/03 03:40:27;;;;;;;;;10.67;9.00;;;;;17.70;65.37;99989.97;5032750;28;45979;-73
2022/11/03 03:42:53;;;;;;;;;10.33;10.00;;;;;17.71;64.83;99980.28;5033450;28;46154;-72
2022/11/03 03:45:20;;;;;;;;;10.33;8.33;;;;;17.85;65.01;100004.00;5034297;28;45454;-73
2022/11/03 03:47:46;;;;;;;;;9.00;9.00;;;;;17.83;65.05;100001.34;5036575;28;45290;-72
2022/11/03 03:50:12;;;;;;;;;8.33;7.67;;;;;17.88;65.03;100004.81;5037434;28;45494;-74
2022/11/03 03:52:38;;;;;;;;;8.33;8.33;;;;;17.83;64.90;99987.25;5036590;28;45850;-72
2022/11/03 03:55:13;;;;;;;;;10.33;9.67;;;;;17.86;64.73;99985.47;5035589;28;45303;-74
2022/11/03 03:57:38;;;;;;;;;8.67;7.67;;;;;17.86;64.60;99984.59;5035204;28;45620;-74
2022/11/03 04:00:05;;;;;;;;;10.00;9.67;;;;;17.91;64.34;99982.78;5037062;28;45411;-74
2022/11/03 04:02:30;;;;;;;;;9.33;8.67;;;;;17.96;64.36;99982.75;5035160;28;45674;-74
2022/11/03 04:04:57;;;;;;;;;8.00;7.00;;;;;18.02;64.22;99987.97;5037290;28;45443;-74
2022/11/03 04:10:07;;;;;;;;;10.67;8.67;;;;;18.03;64.20;99968.59;5037218;28;45259;-74
2022/11/03 04:23:28;;;;;;;;;6.67;6.67;;;;;18.21;63.18;100015.97;5036922;28;45499;-73
2022/11/03 04:25:55;;;;;;;;;10.33;8.33;;;;;18.19;63.06;100014.25;5036878;28;45520;-74
2022/11/03 04:28:21;;;;;;;;;7.00;6.00;;;;;18.21;62.54;100015.97;5036973;28;45258;-74
2022/11/03 04:30:46;;;;;;;;;7.33;7.00;;;;;18.16;62.52;100001.06;5035535;28;45253;-75
2022/11/03 04:33:20;;;;;;;;;8.33;8.00;;;;;18.19;62.22;100004.56;5036525;28;46059;-73
2022/11/03 04:35:46;;;;;;;;;7.00;7.00;;;;;18.23;62.23;100008.03;5038792;28;45493;-75
2022/11/03 04:38:12;;;;;;;;;7.00;6.67;;;;;18.36;61.97;100004.38;5040541;28;45394;-75
2022/11/03 04:40:40;;;;;;;;;9.33;8.33;;;;;18.34;61.98;99998.22;5040385;28;45252;-73
2022/11/03 04:43:11;;;;;;;;;7.67;5.00;;;;;18.33;61.76;100000.91;5039746;28;45556;-74
2022/11/03 04:45:37;;;;;;;;;8.67;6.33;;;;;18.39;61.60;100004.34;5039785;28;45553;-74
2022/11/03 04:48:11;;;;;;;;;8.33;8.33;;;;;18.35;61.42;99999.97;5039850;28;46086;-74
2022/11/03 04:50:38;;;;;;;;;8.67;8.67;;;;;18.48;61.46;100006.00;5040160;28;45453;-74
2022/11/03 04:53:10;;;;;;;;;10.33;8.33;;;;;18.48;61.98;100019.22;5039621;28;46272;-74
2022/11/03 04:55:35;;;;;;;;;9.67;9.67;;;;;18.52;61.47;100022.72;5039719;28;45516;-74
2022/11/03 04:58:09;;;;;;;;;8.33;7.00;;;;;18.61;61.74;100028.78;5040047;28;45495;-75
2022/11/03 05:00:35;;;;;;;;;6.33;6.00;;;;;18.28;62.08;99977.13;5038746;28;45343;-74
2022/11/03 05:03:01;;;;;;;;;10.67;9.67;;;;;18.71;62.18;100063.09;5039804;28;45334;-74
2022/11/03 05:05:26;;;;;;;;;9.00;8.33;;;;;18.65;63.25;100051.66;5038460;28;45471;-75
2022/11/03 05:07:57;;;;;;;;;11.67;11.00;;;;;18.55;64.72;100050.03;5039811;28;45417;-75
2022/11/03 05:10:26;;;;;;;;;12.67;11.67;;;;;18.44;64.78;100034.28;5040059;28;45257;-75
2022/11/03 05:12:53;;;;;;;;;9.67;9.00;;;;;18.44;64.77;100046.59;5039485;28;46276;-74
2022/11/03 05:15:29;;;;;;;;;11.67;10.33;;;;;18.46;65.16;100051.00;5039418;28;45455;-75
2022/11/03 05:17:56;;;;;;;;;9.33;8.00;;;;;18.34;65.27;100019.38;5039569;28;45326;-75
2022/11/03 05:20:29;;;;;;;;;8.33;8.00;;;;;18.26;65.41;99998.31;5038348;28;45495;-74
2022/11/03 05:22:55;;;;;;;;;7.00;7.00;;;;;18.22;64.13;99986.03;5039200;28;45363;-75
2022/11/03 05:25:33;;;;;;;;;10.00;8.33;;;;;18.28;65.04;100008.84;5039314;28;45232;-75
2022/11/03 05:27:59;;;;;;;;;6.33;6.33;;;;;18.20;64.93;99969.28;5038404;28;45458;-74
2022/11/03 05:30:24;;;;;;;;;8.33;7.67;;;;;18.12;64.91;99943.81;5039657;28;45416;-75
2022/11/03 05:32:50;;;;;;;;;5.33;5.00;;;;;18.14;64.72;99942.03;5038023;28;45602;-73
2022/11/03 05:35:21;;;;;;;;;7.00;7.00;;;;;18.15;64.16;99942.03;5038851;28;45406;-75
2022/11/03 05:37:48;;;;;;;;;6.33;6.33;;;;;18.03;64.66;99929.81;5039534;28;45260;-74
2022/11/03 05:40:23;;;;;;;;;6.00;6.00;;;;;18.03;64.70;99948.31;5054932;28;45443;-74
2022/11/03 05:43:00;;;;;;;;;7.67;7.33;;;;;17.83;65.30;99922.09;5038778;28;46114;-75
2022/11/03 05:45:36;;;;;;;;;8.33;8.33;;;;;17.83;65.16;99927.38;5038954;28;45210;-75
2022/11/03 05:48:11;;;;;;;;;7.00;7.00;;;;;17.80;65.64;99937.94;5038385;28;45452;-75
2022/11/03 05:50:41;;;;;;;;;6.33;6.33;;;;;17.86;65.52;99944.97;5039124;28;45411;-74
2022/11/03 05:53:27;;;;;;;;;7.00;7.00;;;;;17.84;66.45;99941.44;5038828;28;45411;-74
2022/11/03 05:55:55;;;;;;;;;9.67;8.00;;;;;17.84;65.90;99944.97;5038901;28;45391;-74
2022/11/03 05:58:26;;;;;;;;;8.67;8.67;;;;;17.77;66.39;99918.63;5039109;28;45377;-74
2022/11/03 06:00:52;;;;;;;;;6.33;6.33;;;;;17.80;66.63;99939.69;5038815;28;45487;-74
2022/11/03 06:03:29;;;;;;;;;9.33;8.67;;;;;17.73;66.40;99923.03;5038371;28;45529;-75
2022/11/03 06:05:57;;;;;;;;;9.00;9.00;;;;;17.94;66.07;99931.69;5038839;28;45270;-74
2022/11/03 06:08:25;;;;;;;;;11.00;10.00;;;;;17.93;66.06;99924.66;5037516;28;45411;-74
2022/11/03 06:10:54;;;;;;;;;8.33;8.33;;;;;17.95;66.07;99934.31;5037740;28;45403;-75
2022/11/03 06:13:27;;;;;;;;;10.00;9.67;;;;;17.80;66.44;99892.16;5038549;28;45357;-75
2022/11/03 06:15:58;;;;;;;;;9.00;9.00;;;;;17.84;66.68;99909.75;5037970;28;45485;-74
2022/11/03 06:18:28;;;;;;;;;8.67;8.33;;;;;17.83;66.88;99913.25;5038722;28;45275;-74
2022/11/03 06:20:58;;;;;;;;;9.00;9.00;;;;;17.81;67.45;99917.69;5038797;28;45256;-73
2022/11/03 06:23:24;;;;;;;;;9.33;8.33;;;;;17.77;67.49;99922.13;5038259;28;46096;-75
2022/11/03 06:25:52;;;;;;;;;10.67;9.67;;;;;17.75;67.49;99912.47;5038126;28;45324;-74
2022/11/03 06:28:39;;;;;;;;;8.00;7.33;;;;;17.72;68.08;99913.34;5037026;28;45514;-74
2022/11/03 06:31:28;;;;;;;;;6.00;6.00;;;;;17.66;67.80;99895.78;5038864;28;45599;-74
2022/11/03 06:33:56;;;;;;;;;8.00;8.00;;;;;17.61;68.44;99894.97;5035520;28;46369;-73
2022/11/03 06:36:26;;;;;;;;;8.33;7.67;;;;;17.61;67.98;99887.06;5036149;28;45408;-74
2022/11/03 06:39:30;;;;;;;;;6.67;6.67;;;;;17.61;67.94;99879.13;5035315;28;45315;-73
2022/11/03 06:41:56;;;;;;;;;8.00;8.00;;;;;17.63;67.43;99858.84;5018486;28;45468;-73
2022/11/03 06:44:27;;;;;;;;;7.67;6.67;;;;;17.54;67.44;99845.72;5052787;28;45521;-73
2022/11/03 06:47:00;;;;;;;;;5.33;5.00;;;;;17.60;67.82;99856.22;5035343;28;45505;-73
2022/11/03 06:49:34;;;;;;;;;6.33;5.67;;;;;17.53;67.60;99838.72;5035818;28;45538;-73
2022/11/03 06:52:32;;;;;;;;;7.00;7.00;;;;;17.55;67.61;99843.97;5037227;28;45461;-74
2022/11/03 06:55:04;;;;;;;;;6.00;6.00;;;;;17.57;67.25;99834.28;5035681;28;45572;-73
2022/11/03 06:57:36;;;;;;;;;7.67;7.67;;;;;17.52;67.01;99829.03;5033927;28;46286;-73
2022/11/03 07:00:19;;;;;;;;;8.33;8.33;;;;;17.56;66.73;99814.03;5037249;28;45468;-72
2022/11/03 07:02:56;;;;;;;;;9.00;8.67;;;;;17.57;66.01;99823.72;5036572;28;45687;-73
2022/11/03 07:05:26;;;;;;;;;9.33;9.00;;;;;17.56;66.30;99806.97;5036828;28;45280;-73
2022/11/03 07:07:57;;;;;;;;;8.33;8.33;;;;;17.73;66.12;99832.34;5033200;28;45552;-75
2022/11/03 07:10:28;;;;;;;;;8.00;7.00;;;;;17.68;65.67;99817.41;5035844;28;45500;-73
2022/11/03 07:12:55;;;;;;;;;8.00;8.00;;;;;17.92;64.50;99825.97;5033949;28;45509;-73
2022/11/03 07:15:36;;;;;;;;;7.67;6.67;;;;;17.95;64.56;99818.03;5036785;28;45331;-73
2022/11/03 07:18:03;;;;;;;;;7.00;7.00;;;;;17.94;63.79;99812.75;5035547;28;45438;-73
2022/11/03 07:20:29;;;;;;;;;12.33;12.00;;;;;18.01;64.36;99835.59;5049642;28;45478;-72
2022/11/03 07:23:00;;;;;;;;;6.33;5.33;;;;;17.97;63.65;99818.03;5036774;28;45478;-74
2022/11/03 07:25:25;;;;;;;;;7.67;7.00;;;;;18.16;63.31;99845.09;5036514;28;45571;-73
2022/11/03 07:27:54;;;;;;;;;5.67;5.67;;;;;18.14;63.32;99825.72;5036540;28;45440;-72
2022/11/03 07:30:22;;;;;;;;;5.00;4.67;;;;;18.19;63.21;99835.38;5036628;28;45795;-74
2022/11/03 07:32:59;;;;;;;;;7.67;6.67;;;;;18.14;63.34;99823.97;5036515;28;45719;-73
2022/11/03 07:35:37;;;;;;;;;5.33;5.00;;;;;18.22;62.95;99839.72;5051691;28;48100;-73
2022/11/03 07:38:12;;;;;;;;;6.00;5.33;;;;;18.27;62.59;99832.63;5036604;28;45446;-73
2022/11/03 07:40:38;;;;;;;;;5.33;5.33;;;;;18.32;62.60;99838.72;5035249;28;45308;-72
2022/11/03 07:43:31;;;;;;;;;6.00;6.00;;;;;18.26;62.82;99830.84;5036553;28;45636;-72
2022/11/03 07:46:00;;;;;;;;;5.67;5.67;;;;;18.39;61.39;99831.59;5033425;28;45676;-73
2022/11/03 07:49:02;;;;;;;;;4.67;4.67;;;;;18.45;61.03;99827.09;5035797;28;45359;-73
2022/11/03 07:51:34;;;;;;;;;4.67;4.67;;;;;18.53;59.70;99815.53;4970833;28;45464;-76
2022/11/03 07:54:12;;;;;;;;;4.67;4.67;;;;;18.50;59.27;99821.72;5025098;28;45584;-75
2022/11/03 07:56:39;;;;;;;;;2.00;1.67;;;;;18.51;59.08;99817.31;5034254;28;45581;-75
2022/11/03 07:59:08;;;;;;;;;3.67;3.67;;;;;18.73;58.30;99845.22;5035101;28;45501;-75
2022/11/03 08:01:39;;;;;;;;;3.67;3.67;;;;;18.73;58.66;99842.56;5036628;28;45371;-75
2022/11/03 08:04:11;;;;;;;;;5.67;5.67;;;;;18.81;58.31;99853.06;5036927;28;45522;-75
2022/11/03 08:06:37;;;;;;;;;5.00;4.67;;;;;18.78;58.73;99840.75;5037261;28;45580;-75
2022/11/03 08:09:03;;;;;;;;;5.00;4.67;;;;;18.82;58.72;99853.06;5036264;28;45386;-72
2022/11/03 08:11:29;;;;;;;;;4.00;4.00;;;;;18.90;58.60;99863.53;5049168;28;45845;-74
2022/11/03 08:13:55;;;;;;;;;5.67;5.67;;;;;18.80;58.45;99856.59;5034528;28;45570;-78
2022/11/03 08:16:21;;;;;;;;;3.00;3.00;;;;;18.84;58.04;99874.19;5035083;28;47603;-74
2022/11/03 08:18:46;;;;;;;;;4.33;3.33;;;;;18.85;58.29;99855.63;5034574;28;45493;-75
2022/11/03 08:21:13;;;;;;;;;3.33;3.33;;;;;18.96;57.56;99868.72;5035673;28;45457;-71
2022/11/03 08:23:38;;;;;;;;;5.00;4.67;;;;;19.05;56.29;99859.75;5036419;28;45538;-79
2022/11/03 08:26:05;;;;;;;;;3.00;3.00;;;;;19.00;56.78;99857.19;5035676;28;45892;-78
2022/11/03 08:28:32;;;;;;;;;3.00;3.00;;;;;19.11;56.63;99869.38;5051343;28;45472;-73
2022/11/03 08:31:00;;;;;;;;;5.00;4.33;;;;;19.06;57.20;99859.75;5036329;28;45596;-78
2022/11/03 08:33:29;;;;;;;;;3.33;3.33;;;;;19.21;56.52;99876.28;5051942;28;45584;-72
2022/11/03 08:35:54;;;;;;;;;4.00;4.00;;;;;19.11;56.39;99843.78;5035483;28;45588;-81
2022/11/03 08:38:20;;;;;;;;;4.33;4.00;;;;;19.27;56.16;99860.28;5036280;28;45550;-73
2022/11/03 08:40:45;;;;;;;;;3.00;3.00;;;;;19.25;56.16;99865.59;5035249;28;45344;-72
2022/11/03 08:43:11;;;;;;;;;6.00;5.00;;;;;19.34;56.57;99868.97;5036910;28;45495;-76
2022/11/03 08:45:36;;;;;;;;;7.00;4.33;;;;;19.35;55.75;99870.75;5035903;28;45452;-73
2022/11/03 08:48:05;;;;;;;;;10.33;9.67;;;;;19.20;56.40;99854.22;5035844;28;45679;-73
2022/11/03 08:50:31;;;;;;;;;5.00;4.00;;;;;19.22;56.50;99862.16;5035306;28;45597;-71
2022/11/03 08:52:56;;;;;;;;;4.00;4.00;;;;;19.17;56.32;99867.50;5035623;28;45489;-72
2022/11/03 08:55:22;;;;;;;;;2.67;2.67;;;;;19.09;56.41;99848.22;5035009;28;45438;-74
2022/11/03 08:57:47;;;;;;;;;3.67;3.67;;;;;19.28;55.29;99880.59;5035404;28;45276;-73
2022/11/03 09:00:15;;;;;;;;;4.00;4.00;;;;;19.39;55.68;99881.25;5033995;28;45616;-71
2022/11/03 09:02:42;;;;;;;;;3.67;3.67;;;;;19.40;55.87;99882.16;5036562;28;45415;-73
2022/11/03 09:05:08;;;;;;;;;6.67;6.67;;;;;19.35;55.58;99878.69;5034602;28;46713;-73
2022/11/03 09:07:34;;;;;;;;;4.00;4.00;;;;;19.36;54.92;99880.44;5035140;28;45475;-73
2022/11/03 09:09:59;;;;;;;;;3.00;3.00;;;;;19.42;54.53;99873.28;5035364;28;45399;-73
2022/11/03 09:12:25;;;;;;;;;4.00;4.00;;;;;19.49;54.57;99903.16;5032586;28;45483;-74
2022/11/03 09:14:50;;;;;;;;;4.00;4.00;;;;;19.59;53.72;99899.47;5034874;28;46035;-71
2022/11/03 09:17:16;;;;;;;;;4.67;4.00;;;;;19.53;53.98;99904.88;5034923;28;45451;-71
2022/11/03 09:19:42;;;;;;;;;5.00;5.00;;;;;19.50;53.79;99901.38;5035450;28;45530;-71
2022/11/03 09:22:07;;;;;;;;;4.00;4.00;;;;;19.50;53.45;99899.63;5038454;28;45470;-74
2022/11/03 09:24:33;;;;;;;;;5.00;5.00;;;;;19.57;52.73;99903.91;5037314;28;46742;-71
2022/11/03 09:26:59;;;;;;;;;1.00;1.00;;;;;19.49;52.67;99897.88;5038532;28;45375;-73
2022/11/03 09:29:24;;;;;;;;;4.00;4.00;;;;;19.51;52.86;99893.41;5037825;28;45269;-73
2022/11/03 09:31:50;;;;;;;;;3.00;3.00;;;;;19.54;52.28;99914.56;5038916;28;45403;-73
2022/11/03 09:34:15;;;;;;;;;4.00;4.00;;;;;19.61;52.29;99913.56;5038638;28;46557;-73
2022/11/03 09:36:41;;;;;;;;;3.00;3.00;;;;;19.60;52.47;99897.72;5038441;28;45507;-74
2022/11/03 09:39:07;;;;;;;;;4.67;3.00;;;;;19.64;52.88;99899.41;5038861;28;45528;-73
2022/11/03 09:41:33;;;;;;;;;4.67;4.67;;;;;19.74;52.39;99898.38;5038929;28;45799;-73
2022/11/03 09:44:02;;;;;;;;;4.00;3.67;;;;;19.91;51.90;99907.78;5038648;28;45496;-74
2022/11/03 09:46:29;;;;;;;;;4.33;4.00;;;;;19.93;51.12;99917.44;5037743;28;45604;-74
2022/11/03 09:48:55;;;;;;;;;3.33;3.00;;;;;20.13;50.53;99913.53;5038068;28;45497;-75
2022/11/03 09:51:22;;;;;;;;;4.67;3.67;;;;;20.14;50.34;99905.56;5038234;28;45337;-73
2022/11/03 09:53:48;;;;;;;;;2.00;2.00;;;;;20.13;50.54;99911.75;5037579;28;46703;-75
2022/11/03 09:56:18;;;;;;;;;3.00;2.00;;;;;20.16;50.45;99909.06;5037603;28;45440;-74
2022/11/03 09:58:43;;;;;;;;;3.00;2.67;;;;;20.19;49.77;99908.13;5037768;28;45477;-73
2022/11/03 10:01:10;;;;;;;;;3.00;3.00;;;;;20.10;50.23;99895.94;5038096;28;45464;-75
2022/11/03 10:03:38;;;;;;;;;3.00;3.00;;;;;20.14;50.40;99889.66;5036350;28;47675;-74
2022/11/03 10:06:04;;;;;;;;;2.00;2.00;;;;;20.12;50.11;99887.94;5037776;28;45335;-72
2022/11/03 10:08:38;;;;;;;;;0.33;0.33;;;;;20.17;49.56;99876.31;5037866;28;45414;-75
2022/11/03 10:11:06;;;;;;;;;2.00;2.00;;;;;20.34;48.89;99891.91;5038552;28;45315;-74
2022/11/03 10:13:42;;;;;;;;;2.33;2.33;;;;;20.36;48.84;99898.06;5036724;28;45343;-75
2022/11/03 10:16:13;;;;;;;;;2.00;2.00;;;;;20.47;49.11;99897.81;5036644;28;45320;-75
2022/11/03 10:18:39;;;;;;;;;3.00;3.00;;;;;20.36;48.76;99875.97;5038051;28;45463;-74
2022/11/03 10:21:11;;;;;;;;;2.67;2.67;;;;;20.51;48.79;99904.81;5038292;28;45511;-75
2022/11/03 10:23:37;;;;;;;;;2.00;1.33;;;;;20.53;47.89;99891.50;5036580;28;45412;-73
2022/11/03 10:26:17;;;;;;;;;2.00;2.00;;;;;20.61;48.33;99892.25;5038073;28;45346;-72
2022/11/03 10:29:18;;;;;;;;;6.33;5.33;;;;;20.74;47.53;99883.13;5038395;28;45388;-73
2022/11/03 10:31:48;;;;;;;;;3.00;2.00;;;;;20.84;47.03;99889.97;5038115;28;45439;-74
2022/11/03 10:34:36;;;;;;;;;3.00;3.00;;;;;20.94;47.58;99889.75;5035804;28;45760;-71
2022/11/03 10:37:17;;;;;;;;;2.00;2.00;;;;;21.00;47.51;99881.66;5037280;28;45494;-72
2022/11/03 10:39:44;;;;;;;;;4.33;4.00;;;;;21.06;46.38;99877.06;5037007;28;45486;-75
2022/11/03 10:42:28;;;;;;;;;4.33;3.67;;;;;21.06;46.49;99878.84;5037236;28;45418;-72
2022/11/03 10:45:10;;;;;;;;;2.00;2.00;;;;;21.11;46.79;99886.69;5036431;28;45398;-72
2022/11/03 10:47:36;;;;;;;;;5.00;4.00;;;;;21.08;46.66;99874.38;5037451;28;45333;-73
2022/11/03 10:50:20;;;;;;;;;3.00;3.00;;;;;21.22;46.12;99884.66;5036105;28;45459;-73
2022/11/03 10:52:45;;;;;;;;;5.00;4.00;;;;;21.24;45.72;99877.53;5036750;28;45455;-70
2022/11/03 10:55:11;;;;;;;;;2.00;2.00;;;;;21.38;45.50;99880.72;5037283;28;45976;-74
2022/11/03 10:57:37;;;;;;;;;3.00;2.33;;;;;21.47;45.80;99895.59;5037514;28;45855;-70
2022/11/03 11:00:03;;;;;;;;;3.00;2.00;;;;;21.57;45.14;99901.56;5036072;28;45258;-72
2022/11/03 11:02:31;;;;;;;;;2.00;2.00;;;;;21.47;45.04;99884.97;5034197;28;45372;-71
2022/11/03 11:05:18;;;;;;;;;1.67;1.67;;;;;21.70;44.98;99902.97;5034239;28;46115;-72
2022/11/03 11:07:45;;;;;;;;;0.00;0.00;;;;;21.88;44.71;99890.97;5035655;28;45534;-70
2022/11/03 11:10:16;;;;;;;;;1.33;1.33;;;;;22.01;44.88;99889.72;5037338;28;45460;-75
2022/11/03 11:13:22;;;;;;;;;3.00;3.00;;;;;22.07;44.50;99896.66;5037281;28;45417;-72
2022/11/03 11:15:49;;;;;;;;;2.33;2.33;;;;;22.14;43.85;99900.03;5034778;28;45887;-71
2022/11/03 11:18:26;;;;;;;;;3.33;2.67;;;;;22.21;44.19;99899.81;5037319;28;45257;-71
2022/11/03 11:20:52;;;;;;;;;5.67;5.33;;;;;22.39;44.69;99885.13;5037239;28;45397;-70
2022/11/03 11:23:30;;;;;;;;;3.67;3.00;;;;;22.53;44.69;99879.41;5018654;28;45400;-71
2022/11/03 11:26:08;;;;;;;;;3.00;3.00;;;;;22.63;44.37;99872.88;5036797;28;45247;-71
2022/11/03 11:28:39;;;;;;;;;2.00;2.00;;;;;22.68;43.68;99875.44;5037199;28;45571;-71
2022/11/03 11:31:25;;;;;;;;;1.00;1.00;;;;;22.58;43.49;99871.28;5052703;28;45463;-72
2022/11/03 11:34:11;;;;;;;;;2.00;2.00;;;;;22.43;43.62;99878.81;5036629;28;45482;-72
2022/11/03 11:36:37;;;;;;;;;3.00;2.00;;;;;22.25;44.68;99890.00;5035152;28;45676;-71
2022/11/03 11:39:08;;;;;;;;;2.00;2.00;;;;;22.17;44.94;99886.66;5037130;28;45523;-73
2022/11/03 11:42:12;;;;;;;;;6.00;5.00;;;;;22.16;44.77;99874.25;5036697;28;45414;-76
2022/11/03 11:44:45;;;;;;;;;2.33;2.33;;;;;22.19;44.85;99884.81;5048661;28;45309;-72
2022/11/03 11:47:21;;;;;;;;;3.00;2.33;;;;;22.14;45.12;99884.94;5035955;28;46490;-73
2022/11/03 11:49:47;;;;;;;;;3.00;3.00;;;;;22.16;45.28;99866.28;5037550;28;45997;-73
2022/11/03 11:52:12;;;;;;;;;3.00;3.00;;;;;22.09;45.24;99865.59;5036750;28;45474;-73
2022/11/03 11:54:41;;;;;;;;;2.67;2.67;;;;;22.04;45.34;99886.09;5036371;28;45378;-70
2022/11/03 11:57:19;;;;;;;;;3.33;3.00;;;;;22.17;45.45;99884.00;5034516;28;47809;-73
2022/11/03 11:59:49;;;;;;;;;4.67;4.00;;;;;22.09;46.01;99880.69;5033065;28;45332;-72
2022/11/03 12:02:23;;;;;;;;;3.67;3.33;;;;;22.22;45.84;99898.00;5035078;28;45396;-71
2022/11/03 12:05:02;;;;;;;;;8.33;8.00;;;;;22.27;45.73;99893.47;5036044;28;46102;-72